sensor_id;sensor_type;location;lat;lon;timestamp;pressure;altitude;pressure_sealevel;temperature;humidity
55014;BME280;40916;51.632;5.552;2023-02-28T00:00:24;1026.5034503849781;;;-1.0562124267387318;0
55014;BME280;40916;51.632;5.552;2023-02-28T00:01:24;1026.5184564490428;;;-1.07167844994132;0
55014;BME280;40916;51.632;5.552;2023-02-28T00:02:24;1026.4918730538336;;;-1.079412589127518;0
55014;BME280;40916;51.632;5.552;2023-02-28T00:03:24;1026.5507449926129;;;-1.07167844994132;0
55014;BME280;40916;51.632;5.552;2023-02-28T00:04:24;1026.506223267752;;;-1.079412589127518;0
55014;BME280;40916;51.632;5.552;2023-02-28T00:05:26;1026.465921734301;;;-1.1026195204480906;0
55014;BME280;40916;51.632;5.552;2023-02-28T00:06:25;1026.521211334662;;;-1.094883124095528;0
55014;BME280;40916;51.632;5.552;2023-02-28T00:07:25;1026.5131784744863;;;-1.1180945723183022;0
55014;BME280;40916;51.632;5.552;2023-02-28T00:08:25;1026.3789652537012;;;-1.125833228407572;0
55014;BME280;40916;51.632;5.552;2023-02-28T00:09:25;1026.508103860199;;;-1.125833228407572;0
55014;BME280;40916;51.632;5.552;2023-02-28T00:10:26;1026.4462328837346;;;-1.149053720724801;0
55014;BME280;40916;51.632;5.552;2023-02-28T00:11:25;1026.51946894344;;;-1.1413128023245775;0
55014;BME280;40916;51.632;5.552;2023-02-28T00:12:25;1026.4569938825007;;;-1.149053720724801;0
55014;BME280;40916;51.632;5.552;2023-02-28T00:13:25;1026.5436673893955;;;-1.1645378218410016;0
55014;BME280;40916;51.632;5.552;2023-02-28T00:14:26;1026.507798598243;;;-1.1645378218410016;0
55014;BME280;40916;51.632;5.552;2023-02-28T00:15:26;1026.493451084954;;;-1.1645378218410016;0
55014;BME280;40916;51.632;5.552;2023-02-28T00:16:26;1026.5457492236762;;;-1.172281005130337;0
55014;BME280;40916;51.632;5.552;2023-02-28T00:17:26;1026.4602367188427;;;-1.1877696386059675;0
55014;BME280;40916;51.632;5.552;2023-02-28T00:18:26;1026.5017642195276;;;-1.1955150893664914;0
55014;BME280;40916;51.632;5.552;2023-02-28T00:19:26;1026.4972088397728;;;-1.2187559811873534;0
55014;BME280;40916;51.632;5.552;2023-02-28T00:20:26;1026.4598208766545;;;-1.226504459266149;0
55014;BME280;40916;51.632;5.552;2023-02-28T00:21:26;1026.4024387222698;;;-1.226504459266149;0
55014;BME280;40916;51.632;5.552;2023-02-28T00:22:26;1026.5043817363792;;;-1.2187559811873534;0
55014;BME280;40916;51.632;5.552;2023-02-28T00:23:27;1026.4500365943322;;;-1.2032612965252198;0
55014;BME280;40916;51.632;5.552;2023-02-28T00:24:27;1026.431129795838;;;-1.226504459266149;0
55014;BME280;40916;51.632;5.552;2023-02-28T00:25:27;1026.4741664197809;;;-1.226504459266149;0
55014;BME280;40916;51.632;5.552;2023-02-28T00:26:27;1026.4920983512375;;;-1.226504459266149;0
55014;BME280;40916;51.632;5.552;2023-02-28T00:27:27;1026.4163003144852;;;-1.2652582186585057;0
55014;BME280;40916;51.632;5.552;2023-02-28T00:28:27;1026.5233713177372;;;-1.2497544399489087;0
55014;BME280;40916;51.632;5.552;2023-02-28T00:29:27;1026.5366850805908;;;-1.2730112463551357;0
55014;BME280;40916;51.632;5.552;2023-02-28T00:30:27;1026.4838741086166;;;-1.304030952827432;0
55014;BME280;40916;51.632;5.552;2023-02-28T00:31:27;1026.4628325175627;;;-1.3195453675238085;0
55014;BME280;40916;51.632;5.552;2023-02-28T00:32:28;1026.489490269365;;;-1.3117877798127537;0
55014;BME280;40916;51.632;5.552;2023-02-28T00:33:28;1026.3736558920207;;;-1.335062826281959;0
55014;BME280;40916;51.632;5.552;2023-02-28T00:34:28;1026.4079456932766;;;-1.3428226979088471;0
55014;BME280;40916;51.632;5.552;2023-02-28T00:35:28;1026.4653130908173;;;-1.3428226979088471;0
55014;BME280;40916;51.632;5.552;2023-02-28T00:36:28;1026.4494022405775;;;-1.3505833314210527;0
55014;BME280;40916;51.632;5.552;2023-02-28T00:37:28;1026.4283293449084;;;-1.3661068852625995;0
55014;BME280;40916;51.632;5.552;2023-02-28T00:38:28;1026.4462557335187;;;-1.3661068852625995;0
55014;BME280;40916;51.632;5.552;2023-02-28T00:39:28;1026.3969082810443;;;-1.3971631483509483;0
55014;BME280;40916;51.632;5.552;2023-02-28T00:40:29;1026.458257513477;;;-1.4126958622525905;0
55014;BME280;40916;51.632;5.552;2023-02-28T00:41:29;1026.3945061396212;;;-1.4437704664256827;0
55014;BME280;40916;51.632;5.552;2023-02-28T00:42:29;1026.4884313691064;;;-1.4748573213260379;0
55014;BME280;40916;51.632;5.552;2023-02-28T00:43:29;1026.419380748787;;;-1.5137331460503916;0
55014;BME280;40916;51.632;5.552;2023-02-28T00:44:29;1026.4037253982794;;;-1.5370678582038835;0
55014;BME280;40916;51.632;5.552;2023-02-28T00:45:29;1026.4114827024134;;;-1.5681915777244981;0
55014;BME280;40916;51.632;5.552;2023-02-28T00:46:29;1026.3668276096964;;;-1.5759744327766931;0
55014;BME280;40916;51.632;5.552;2023-02-28T00:47:29;1026.3905248241017;;;-1.5993276230588123;0
55014;BME280;40916;51.632;5.552;2023-02-28T00:48:29;1026.3907793485532;;;-1.6149002738006786;0
55014;BME280;40916;51.632;5.552;2023-02-28T00:49:32;1026.4806016951038;;;-1.6304760130742615;0
55014;BME280;40916;51.632;5.552;2023-02-28T00:50:30;1026.473435329475;;;-1.6304760130742615;0
55014;BME280;40916;51.632;5.552;2023-02-28T00:51:30;1026.4321095064834;;;-1.6226877572232823;0
55014;BME280;40916;51.632;5.552;2023-02-28T00:52:30;1026.4125212398892;;;-1.6304760130742615;0
55014;BME280;40916;51.632;5.552;2023-02-28T00:53:30;1026.2730124365291;;;-1.6460548432440198;0
55014;BME280;40916;51.632;5.552;2023-02-28T00:54:30;1026.4020024131785;;;-1.6460548432440198;0
55014;BME280;40916;51.632;5.552;2023-02-28T00:55:30;1026.3516071829758;;;-1.6304760130742615;0
55014;BME280;40916;51.632;5.552;2023-02-28T00:56:30;1026.3874389772031;;;-1.6304760130742615;0
55014;BME280;40916;51.632;5.552;2023-02-28T00:57:30;1026.3857644884927;;;-1.6382650416492481;0
55014;BME280;40916;51.632;5.552;2023-02-28T00:58:30;1026.323175187817;;;-1.6460548432440198;0
55014;BME280;40916;51.632;5.552;2023-02-28T00:59:30;1026.3628091370324;;;-1.6616367666768177;0
55014;BME280;40916;51.632;5.552;2023-02-28T01:00:30;1026.4058043312943;;;-1.6616367666768177;0
55014;BME280;40916;51.632;5.552;2023-02-28T01:01:30;1026.4289858393254;;;-1.6538454181545141;0
55014;BME280;40916;51.632;5.552;2023-02-28T01:02:30;1026.4487995418338;;;-1.6616367666768177;0
55014;BME280;40916;51.632;5.552;2023-02-28T01:03:31;1026.3843067321286;;;-1.6616367666768177;0
55014;BME280;40916;51.632;5.552;2023-02-28T01:04:31;1026.4416336722802;;;-1.6616367666768177;0
55014;BME280;40916;51.632;5.552;2023-02-28T01:05:31;1026.4599471417012;;;-1.6928099028110637;0
55014;BME280;40916;51.632;5.552;2023-02-28T01:06:31;1026.3741473973075;;;-1.7084011202583476;0
55014;BME280;40916;51.632;5.552;2023-02-28T01:07:31;1026.4028078954373;;;-1.7084011202583476;0
55014;BME280;40916;51.632;5.552;2023-02-28T01:08:31;1026.2864641404783;;;-1.7161978923663703;0
55014;BME280;40916;51.632;5.552;2023-02-28T01:09:31;1026.3993974456532;;;-1.7239954404603282;0
55014;BME280;40916;51.632;5.552;2023-02-28T01:10:31;1026.3939391085817;;;-1.7161978923663703;0
55014;BME280;40916;51.632;5.552;2023-02-28T01:11:31;1026.4584241382643;;;-1.7161978923663703;0
55014;BME280;40916;51.632;5.552;2023-02-28T01:12:31;1026.4672940426747;;;-1.7084011202583476;0
55014;BME280;40916;51.632;5.552;2023-02-28T01:13:31;1026.526318103465;;;-1.7006051238389581;0
55014;BME280;40916;51.632;5.552;2023-02-28T01:14:31;1026.4725786899473;;;-1.7006051238389581;0
55014;BME280;40916;51.632;5.552;2023-02-28T01:15:32;1026.7027592538946;;;-1.6304760130742615;0
55014;BME280;40916;51.632;5.552;2023-02-28T01:16:32;1026.5902207752094;;;-1.6538454181545141;0
55014;BME280;40916;51.632;5.552;2023-02-28T01:17:32;1026.5238264145391;;;-1.6460548432440198;0
55014;BME280;40916;51.632;5.552;2023-02-28T01:18:32;1026.5021007947034;;;-1.6304760130742615;0
55014;BME280;40916;51.632;5.552;2023-02-28T01:19:32;1026.630860941952;;;-1.6149002738006786;0
55014;BME280;40916;51.632;5.552;2023-02-28T01:20:32;1026.5216906203605;;;-1.6226877572232823;0
55014;BME280;40916;51.632;5.552;2023-02-28T01:21:32;1026.5446122908897;;;-1.5993276230588123;0
55014;BME280;40916;51.632;5.552;2023-02-28T01:22:32;1026.5837704808569;;;-1.5837580584866302;0
55014;BME280;40916;51.632;5.552;2023-02-28T01:23:32;1026.5233616582777;;;-1.6149002738006786;0
55014;BME280;40916;51.632;5.552;2023-02-28T01:24:32;1026.6236943198749;;;-1.6149002738006786;0
55014;BME280;40916;51.632;5.552;2023-02-28T01:25:33;1026.6005220590234;;;-1.6226877572232823;0
55014;BME280;40916;51.632;5.552;2023-02-28T01:26:32;1026.5864192841234;;;-1.6382650416492481;0
55014;BME280;40916;51.632;5.552;2023-02-28T01:27:33;1026.5742023322148;;;-1.6616367666768177;0
55014;BME280;40916;51.632;5.552;2023-02-28T01:28:33;1026.5455388250623;;;-1.6616367666768177;0
55014;BME280;40916;51.632;5.552;2023-02-28T01:29:33;1026.588534088504;;;-1.6616367666768177;0
55014;BME280;40916;51.632;5.552;2023-02-28T01:30:33;1026.577986464255;;;-1.6772217857419314;0
55014;BME280;40916;51.632;5.552;2023-02-28T01:31:39;1026.5545986361674;;;-1.6694288891071594;0
55014;BME280;40916;51.632;5.552;2023-02-28T01:32:33;1026.5421583157615;;;-1.6772217857419314;0
55014;BME280;40916;51.632;5.552;2023-02-28T01:33:33;1026.660192897079;;;-1.6616367666768177;0
55014;BME280;40916;51.632;5.552;2023-02-28T01:34:33;1026.6781076062878;;;-1.6616367666768177;0
55014;BME280;40916;51.632;5.552;2023-02-28T01:35:33;1026.6064487864087;;;-1.6616367666768177;0
55014;BME280;40916;51.632;5.552;2023-02-28T01:36:33;1026.6637758386946;;;-1.6616367666768177;0
55014;BME280;40916;51.632;5.552;2023-02-28T01:37:33;1026.6119246739163;;;-1.6694288891071594;0
55014;BME280;40916;51.632;5.552;2023-02-28T01:38:33;1026.5512120073524;;;-1.685015456877668;0
55014;BME280;40916;51.632;5.552;2023-02-28T01:39:33;1026.5400587706265;;;-1.6538454181545141;0
55014;BME280;40916;51.632;5.552;2023-02-28T01:40:34;1026.5524909044393;;;-1.6460548432440198;0
55014;BME280;40916;51.632;5.552;2023-02-28T01:41:34;1026.5558485615084;;;-1.6304760130742615;0
55014;BME280;40916;51.632;5.552;2023-02-28T01:42:34;1026.5665981179218;;;-1.6304760130742615;0
55014;BME280;40916;51.632;5.552;2023-02-28T01:43:52;1026.5054451208916;;;-1.6149002738006786;0
55014;BME280;40916;51.632;5.552;2023-02-28T01:45:16;1026.5145241286498;;;-1.6226877572232823;0
55014;BME280;40916;51.632;5.552;2023-02-28T01:45:34;1026.469612054599;;;-1.6149002738006786;0
55014;BME280;40916;51.632;5.552;2023-02-28T01:46:34;1026.4679419435547;;;-1.6226877572232823;0
55014;BME280;40916;51.632;5.552;2023-02-28T01:47:35;1026.4304371451994;;;-1.6304760130742615;0
55014;BME280;40916;51.632;5.552;2023-02-28T01:48:35;1026.4555194173818;;;-1.6304760130742615;0
55014;BME280;40916;51.632;5.552;2023-02-28T01:49:34;1026.3979459559325;;;-1.6149002738006786;0
55014;BME280;40916;51.632;5.552;2023-02-28T01:50:36;1026.4643586993388;;;-1.6226877572232823;0
55014;BME280;40916;51.632;5.552;2023-02-28T01:51:37;1026.355422682488;;;-1.6460548432440198;0
55014;BME280;40916;51.632;5.552;2023-02-28T01:52:34;1026.3750151344461;;;-1.6382650416492481;0
55014;BME280;40916;51.632;5.552;2023-02-28T01:53:36;1026.394836299521;;;-1.6460548432440198;0
55014;BME280;40916;51.632;5.552;2023-02-28T01:54:35;1026.3769210173557;;;-1.6460548432440198;0
55014;BME280;40916;51.632;5.552;2023-02-28T01:55:35;1026.3628091370324;;;-1.6616367666768177;0
55014;BME280;40916;51.632;5.552;2023-02-28T01:56:35;1026.3238050748578;;;-1.6928099028110637;0
55014;BME280;40916;51.632;5.552;2023-02-28T01:57:36;1026.386595681212;;;-1.7006051238389581;0
55014;BME280;40916;51.632;5.552;2023-02-28T01:58:35;1026.3707379373345;;;-1.7239954404603282;0
55014;BME280;40916;51.632;5.552;2023-02-28T01:59:36;1026.3796091069576;;;-1.7161978923663703;0
55014;BME280;40916;51.632;5.552;2023-02-28T02:00:35;1026.2866342648465;;;-1.731793764837665;0
55014;BME280;40916;51.632;5.552;2023-02-28T02:01:35;1026.3473666099155;;;-1.7161978923663703;0
55014;BME280;40916;51.632;5.552;2023-02-28T02:02:36;1026.3081285085823;;;-1.731793764837665;0
55014;BME280;40916;51.632;5.552;2023-02-28T02:03:35;1026.410304737885;;;-1.7395928657959878;0
55014;BME280;40916;51.632;5.552;2023-02-28T02:04:37;1026.3207468808346;;;-1.7395928657959878;0
55014;BME280;40916;51.632;5.552;2023-02-28T02:05:36;1026.377729959178;;;-1.7084011202583476;0
55014;BME280;40916;51.632;5.552;2023-02-28T02:06:37;1026.3007941303488;;;-1.7161978923663703;0
55014;BME280;40916;51.632;5.552;2023-02-28T02:07:36;1026.4005350531024;;;-1.6694288891071594;0
55014;BME280;40916;51.632;5.552;2023-02-28T02:08:36;1026.3718720839636;;;-1.6694288891071594;0
55014;BME280;40916;51.632;5.552;2023-02-28T02:09:36;1026.3678488989804;;;-1.6382650416492481;0
55014;BME280;40916;51.632;5.552;2023-02-28T02:10:39;1026.33177874283;;;-1.6226877572232823;0
55014;BME280;40916;51.632;5.552;2023-02-28T02:11:36;1026.3045226079655;;;-1.5993276230588123;0
55014;BME280;40916;51.632;5.552;2023-02-28T02:12:42;1026.3108475172012;;;-1.5526281784151905;0
55014;BME280;40916;51.632;5.552;2023-02-28T02:13:41;1026.3069595707966;;;-1.5370678582038835;0
55014;BME280;40916;51.632;5.552;2023-02-28T02:14:40;1026.2936033216415;;;-1.4981805132974557;0
55014;BME280;40916;51.632;5.552;2023-02-28T02:15:38;1026.227122764803;;;-1.490405348645666;0
55014;BME280;40916;51.632;5.552;2023-02-28T02:16:39;1026.2690430905388;;;-1.4437704664256827;0
55014;BME280;40916;51.632;5.552;2023-02-28T02:17:38;1026.2009346362247;;;-1.4437704664256827;0
55014;BME280;40916;51.632;5.552;2023-02-28T02:18:37;1026.149955762854;;;-1.4126958622525905;0
55014;BME280;40916;51.632;5.552;2023-02-28T02:19:44;1026.210063051154;;;-1.3816334901304863;0
55014;BME280;40916;51.632;5.552;2023-02-28T02:20:44;1026.2598214302877;;;-1.3661068852625995;0
55014;BME280;40916;51.632;5.552;2023-02-28T02:21:47;1026.2071600300924;;;-1.3428226979088471;0
55014;BME280;40916;51.632;5.552;2023-02-28T02:22:43;1026.2374061417288;;;-1.335062826281959;0
55014;BME280;40916;51.632;5.552;2023-02-28T02:24:45;1026.2600050528392;;;-1.3117877798127537;0
55014;BME280;40916;51.632;5.552;2023-02-28T02:25:11;1026.3215241359364;;;-1.2730112463551357;0
55014;BME280;40916;51.632;5.552;2023-02-28T02:25:38;1026.2457027962464;;;-1.2575059499526482;0
55014;BME280;40916;51.632;5.552;2023-02-28T02:26:42;1026.2057273348748;;;-1.2420036883587926;0
55014;BME280;40916;51.632;5.552;2023-02-28T02:27:39;1026.2584342253135;;;-1.2110082603696313;0
55014;BME280;40916;51.632;5.552;2023-02-28T02:28:46;1026.255795414192;;;-1.1877696386059675;0
55014;BME280;40916;51.632;5.552;2023-02-28T02:29:45;1026.2854123459545;;;-1.1645378218410016;0
55014;BME280;40916;51.632;5.552;2023-02-28T02:30:43;1026.249543636369;;;-1.1645378218410016;0
55014;BME280;40916;51.632;5.552;2023-02-28T02:31:44;1026.2217430938347;;;-1.1413128023245775;0
55014;BME280;40916;51.632;5.552;2023-02-28T02:32:49;1026.265029284284;;;-1.1026195204480906;0
55014;BME280;40916;51.632;5.552;2023-02-28T02:33:45;1026.35048806222;;;-1.0871474804171548;0
55014;BME280;40916;51.632;5.552;2023-02-28T02:34:41;1026.2867254091486;;;-1.0639450625733957;0
55014;BME280;40916;51.632;5.552;2023-02-28T02:36:38;1026.2258304645093;;;-1.025289393037358;0
55014;BME280;40916;51.632;5.552;2023-02-28T02:37:39;1026.2610120427853;;;-1.0098323779863705;0
55014;BME280;40916;51.632;5.552;2023-02-28T02:38:39;1026.3241715989732;;;-0.9789273401205172;0
55014;BME280;40916;51.632;5.552;2023-02-28T02:39:40;1026.2825412368636;;;-0.9712029523817343;0
55014;BME280;40916;51.632;5.552;2023-02-28T02:40:41;1026.2796366155349;;;-0.9480342767785501;0
55014;BME280;40916;51.632;5.552;2023-02-28T02:41:39;1026.2178740014465;;;-0.9325922298910037;0
55014;BME280;40916;51.632;5.552;2023-02-28T02:42:40;1026.2817049698624;;;-0.9171531698433739;0
55014;BME280;40916;51.632;5.552;2023-02-28T02:43:40;1026.3124408751798;;;-0.8862840012344186;0
55014;BME280;40916;51.632;5.552;2023-02-28T02:44:39;1026.2177270958255;;;-0.8940001751559841;0
55014;BME280;40916;51.632;5.552;2023-02-28T02:45:40;1026.1608956138452;;;-0.8708538881620633;0
55014;BME280;40916;51.632;5.552;2023-02-28T02:46:40;1026.2534025774905;;;-0.8554267529075581;0
55014;BME280;40916;51.632;5.552;2023-02-28T02:47:39;1026.310551243782;;;-0.8168719279653942;0
55014;BME280;40916;51.632;5.552;2023-02-28T02:48:40;1026.3025218045332;;;-0.8014551973707462;0
55014;BME280;40916;51.632;5.552;2023-02-28T02:49:40;1026.2599410197095;;;-0.7783356652376661;0
55014;BME280;40916;51.632;5.552;2023-02-28T02:50:42;1026.271182299836;;;-0.7552228028988104;0
55014;BME280;40916;51.632;5.552;2023-02-28T02:51:40;1026.253676982451;;;-0.732116602808599;0
55014;BME280;40916;51.632;5.552;2023-02-28T02:52:40;1026.2590187786166;;;-0.701318686499139;0
55014;BME280;40916;51.632;5.552;2023-02-28T02:53:40;1026.3142064320075;;;-0.6936210538638328;0
55014;BME280;40916;51.632;5.552;2023-02-28T02:54:40;1026.2603473183674;;;-0.6936210538638328;0
55014;BME280;40916;51.632;5.552;2023-02-28T02:55:41;1026.2463624200766;;;-0.670532582967045;0
55014;BME280;40916;51.632;5.552;2023-02-28T02:56:40;1026.3041703238418;;;-0.6474507467490085;0
55014;BME280;40916;51.632;5.552;2023-02-28T02:57:42;1026.1523701852032;;;-0.6320665381690809;0
55014;BME280;40916;51.632;5.552;2023-02-28T02:58:41;1026.292735545814;;;-0.6089957431041881;0
55014;BME280;40916;51.632;5.552;2023-02-28T02:59:40;1026.245044699668;;;-0.5936188883681375;0
55014;BME280;40916;51.632;5.552;2023-02-28T03:00:41;1026.2724832628712;;;-0.6013069483898406;0
55014;BME280;40916;51.632;5.552;2023-02-28T03:01:41;1026.2378619002386;;;-0.5936188883681375;0
55014;BME280;40916;51.632;5.552;2023-02-28T03:02:41;1026.1957710459712;;;-0.6089957431041881;0
55014;BME280;40916;51.632;5.552;2023-02-28T03:03:41;1026.275065790047;;;-0.5859315627626813;0
55014;BME280;40916;51.632;5.552;2023-02-28T03:04:42;1026.3086766381286;;;-0.5782449712972166;0
55014;BME280;40916;51.632;5.552;2023-02-28T03:05:42;1026.3230427344392;;;-0.5782449712972166;0
55014;BME280;40916;51.632;5.552;2023-02-28T03:06:41;1026.290439962706;;;-0.6013069483898406;0
55014;BME280;40916;51.632;5.552;2023-02-28T03:07:41;1026.3576694411497;;;-0.5859315627626813;0
55014;BME280;40916;51.632;5.552;2023-02-28T03:08:41;1026.3289377296035;;;-0.5859315627626813;0
55014;BME280;40916;51.632;5.552;2023-02-28T03:09:49;1026.398464769885;;;-0.5782449712972166;0
55014;BME280;40916;51.632;5.552;2023-02-28T03:10:42;1026.2858401759138;;;-0.5859315627626813;0
55014;BME280;40916;51.632;5.552;2023-02-28T03:11:41;1026.330225783276;;;-0.5782449712972166;0
55014;BME280;40916;51.632;5.552;2023-02-28T03:12:45;1026.2871274970703;;;-0.5782449712972166;0
55014;BME280;40916;51.632;5.552;2023-02-28T03:13:43;1026.3037974879637;;;-0.5859315627626813;0
55014;BME280;40916;51.632;5.552;2023-02-28T03:14:45;1026.2760746026113;;;-0.6013069483898406;0
55014;BME280;40916;51.632;5.552;2023-02-28T03:15:45;1026.2548037931492;;;-0.5782449712972166;0
55014;BME280;40916;51.632;5.552;2023-02-28T03:16:49;1026.2861022472716;;;-0.5628739896819326;0
55014;BME280;40916;51.632;5.552;2023-02-28T03:17:47;1026.1485786969936;;;-0.5475059413150234;0
55014;BME280;40916;51.632;5.552;2023-02-28T03:18:44;1026.1870370909494;;;-0.5321408239914263;0
55014;BME280;40916;51.632;5.552;2023-02-28T03:19:45;1026.2914056280017;;;-0.5090986388941197;0
55014;BME280;40916;51.632;5.552;2023-02-28T03:20:44;1026.2915843854726;;;-0.4860630362630687;0
55014;BME280;40916;51.632;5.552;2023-02-28T03:21:43;1026.2953305630344;;;-0.4630340086841258;0
55014;BME280;40916;51.632;5.552;2023-02-28T03:22:45;1026.3229622513247;;;-0.44768497278194985;0
55014;BME280;40916;51.632;5.552;2023-02-28T03:23:45;1026.2871485026624;;;-0.424666887177505;0
55014;BME280;40916;51.632;5.552;2023-02-28T03:24:43;1026.3172003704274;;;-0.39398630228521725;0
55014;BME280;40916;51.632;5.552;2023-02-28T03:25:46;1026.3064760391092;;;-0.37098350099545385;0
55014;BME280;40916;51.632;5.552;2023-02-28T03:26:43;1026.2549948016556;;;-0.3556519328937746;0
55014;BME280;40916;51.632;5.552;2023-02-28T03:27:45;1026.2765661502608;;;-0.3326600244344107;0
55014;BME280;40916;51.632;5.552;2023-02-28T03:28:45;1026.278955805945;;;-0.31733571141851513;0
55014;BME280;40916;51.632;5.552;2023-02-28T03:29:44;1026.191491726859;;;-0.3020142966336863;0
55014;BME280;40916;51.632;5.552;2023-02-28T03:30:45;1026.157918244476;;;-0.286695777909884;0
55014;BME280;40916;51.632;5.552;2023-02-28T03:31:44;1026.2585456190568;;;-0.286695777909884;0
55014;BME280;40916;51.632;5.552;2023-02-28T03:32:45;1026.272920965561;;;-0.286695777909884;0
55014;BME280;40916;51.632;5.552;2023-02-28T03:33:44;1026.1902627480101;;;-0.286695777909884;0
55014;BME280;40916;51.632;5.552;2023-02-28T03:34:46;1026.253713879881;;;-0.27138015307924235;0
55014;BME280;40916;51.632;5.552;2023-02-28T03:35:45;1026.252537271385;;;-0.2790376038933253;0
55014;BME280;40916;51.632;5.552;2023-02-28T03:36:45;1026.214180350632;;;-0.27138015307924235;0
55014;BME280;40916;51.632;5.552;2023-02-28T03:37:44;1026.1626898818445;;;-0.2790376038933253;0
55014;BME280;40916;51.632;5.552;2023-02-28T03:38:45;1026.2249622208806;;;-0.27138015307924235;0
55014;BME280;40916;51.632;5.552;2023-02-28T03:39:45;1026.3279405630853;;;-0.2560674199760591;0
55014;BME280;40916;51.632;5.552;2023-02-28T03:40:45;1026.3351287267972;;;-0.2560674199760591;0
55014;BME280;40916;51.632;5.552;2023-02-28T03:41:45;1026.3507507827476;;;-0.27138015307924235;0
55014;BME280;40916;51.632;5.552;2023-02-28T03:42:45;1026.2765148024714;;;-0.286695777909884;0
55014;BME280;40916;51.632;5.552;2023-02-28T03:43:46;1026.2465259644487;;;-0.27138015307924235;0
55014;BME280;40916;51.632;5.552;2023-02-28T03:44:45;1026.2884762471044;;;-0.2790376038933253;0
55014;BME280;40916;51.632;5.552;2023-02-28T03:45:44;1026.304029300647;;;-0.27138015307924235;0
55014;BME280;40916;51.632;5.552;2023-02-28T03:46:45;1026.3219990991802;;;-0.27138015307924235;0
55014;BME280;40916;51.632;5.552;2023-02-28T03:47:45;1026.3231741477116;;;-0.2637234251969893;0
55014;BME280;40916;51.632;5.552;2023-02-28T03:48:45;1026.3578633876357;;;-0.2484121371460688;0
55014;BME280;40916;51.632;5.552;2023-02-28T03:49:46;1026.3962281367183;;;-0.2560674199760591;0
55014;BME280;40916;51.632;5.552;2023-02-28T03:50:46;1026.3973989726096;;;-0.2484121371460688;0
55014;BME280;40916;51.632;5.552;2023-02-28T03:51:45;1026.3315346448844;;;-0.2560674199760591;0
55014;BME280;40916;51.632;5.552;2023-02-28T03:52:47;1026.2776234298412;;;-0.2560674199760591;0
55014;BME280;40916;51.632;5.552;2023-02-28T03:53:46;1026.3123061955023;;;-0.24075757643678486;0
55014;BME280;40916;51.632;5.552;2023-02-28T03:54:46;1026.3230888043827;;;-0.24075757643678486;0
55014;BME280;40916;51.632;5.552;2023-02-28T03:55:47;1026.3971780191862;;;-0.20249559525193206;0
55014;BME280;40916;51.632;5.552;2023-02-28T03:56:47;1026.3445449996732;;;-0.21779822433277118;0
55014;BME280;40916;51.632;5.552;2023-02-28T03:57:49;1026.3792054744138;;;-0.20249559525193206;0
55014;BME280;40916;51.632;5.552;2023-02-28T03:58:47;1026.3073153237679;;;-0.20249559525193206;0
55014;BME280;40916;51.632;5.552;2023-02-28T03:59:47;1026.2857482874483;;;-0.20249559525193206;0
55014;BME280;40916;51.632;5.552;2023-02-28T04:00:46;1026.3538941332909;;;-0.17954705472341814;0
55014;BME280;40916;51.632;5.552;2023-02-28T04:01:47;1026.3491539693757;;;-0.18719584817957724;0
55014;BME280;40916;51.632;5.552;2023-02-28T04:02:46;1026.2999737951375;;;-0.17954705472341814;0
55014;BME280;40916;51.632;5.552;2023-02-28T04:03:46;1026.337063209521;;;-0.17189898096185274;0
55014;BME280;40916;51.632;5.552;2023-02-28T04:04:46;1026.3047104618618;;;-0.17189898096185274;0
55014;BME280;40916;51.632;5.552;2023-02-28T04:05:48;1026.280686068244;;;-0.1642516266259797;0
55014;BME280;40916;51.632;5.552;2023-02-28T04:06:48;1026.228080050756;;;-0.17954705472341814;0
55014;BME280;40916;51.632;5.552;2023-02-28T04:07:46;1026.2842808774842;;;-0.1642516266259797;0
55014;BME280;40916;51.632;5.552;2023-02-28T04:08:47;1026.275765792345;;;-0.14895907515641582;0
55014;BME280;40916;51.632;5.552;2023-02-28T04:09:47;1026.2973353770526;;;-0.14895907515641582;0
55014;BME280;40916;51.632;5.552;2023-02-28T04:10:48;1026.2901455150281;;;-0.14895907515641582;0
55014;BME280;40916;51.632;5.552;2023-02-28T04:11:48;1026.2038672062401;;;-0.14895907515641582;0
55014;BME280;40916;51.632;5.552;2023-02-28T04:12:47;1026.3593658967222;;;-0.11838259350904323;0